Time;durP1;ratioP1;P1;durP2;ratioP2;P2;SDS_P1;SDS_P2;PMS_P1;PMS_P2;Temp;Humidity;BMP_temperature;BMP_pressure;BME280_temperature;BME280_humidity;BME280_pressure;Samples;Min_cycle;Max_cycle;Signal;HPM_P1;HPM_P2
2022/09/08 00:00:55;;;;;;;5.65;2.50;;;;;;;18.39;63.07;100942.50;5194212;28;20451;-43
2022/09/08 00:03:29;;;;;;;7.93;3.47;;;;;;;18.42;62.94;100936.75;5190452;28;20102;-44
2022/09/08 00:06:07;;;;;;;8.48;3.00;;;;;;;18.39;62.92;100921.09;5188557;28;20368;-37
2022/09/08 00:08:44;;;;;;;10.48;3.17;;;;;;;18.50;62.65;100921.59;5192121;28;20066;-39
2022/09/08 00:11:21;;;;;;;13.93;3.45;;;;;;;18.34;63.02;100902.19;5193300;28;20826;-47
2022/09/08 00:13:53;;;;;;;14.18;3.58;;;;;;;18.35;63.37;100905.69;5195061;28;20505;-43
2022/09/08 00:16:26;;;;;;;14.25;4.97;;;;;;;18.29;63.78;100893.94;5191176;28;20535;-44
2022/09/08 00:18:59;;;;;;;18.35;7.05;;;;;;;18.26;64.21;100894.31;5191746;28;20071;-42
2022/09/08 00:21:31;;;;;;;19.10;7.60;;;;;;;18.25;64.32;100889.19;5192745;28;20178;-47
2022/09/08 00:24:04;;;;;;;20.42;9.15;;;;;;;18.24;64.52;100896.38;5189946;28;22141;-43
2022/09/08 00:26:38;;;;;;;21.48;10.13;;;;;;;18.27;64.28;100890.66;5194759;28;20051;-44
2022/09/08 00:29:11;;;;;;;21.38;10.85;;;;;;;18.27;64.55;100885.31;5178629;28;20128;-42
2022/09/08 00:31:44;;;;;;;20.48;10.45;;;;;;;18.29;64.78;100885.91;5193684;28;20453;-35
2022/09/08 00:34:16;;;;;;;23.08;11.10;;;;;;;18.27;64.66;100869.25;5176654;28;20041;-42
2022/09/08 00:36:49;;;;;;;18.90;9.07;;;;;;;18.27;65.08;100874.59;5191427;28;20135;-43
2022/09/08 00:39:22;;;;;;;15.57;9.15;;;;;;;18.30;65.63;100876.03;5195572;28;20767;-42
2022/09/08 00:41:56;;;;;;;18.98;8.73;;;;;;;18.23;65.90;100864.50;5190524;28;20055;-45
2022/09/08 00:44:48;;;;;;;17.10;7.75;;;;;;;18.27;65.92;100863.91;5192058;28;20086;-45
2022/09/08 00:47:25;;;;;;;12.48;5.93;;;;;;;18.27;66.04;100861.25;5192545;28;20362;-45
2022/09/08 00:50:03;;;;;;;10.00;4.93;;;;;;;18.20;65.92;100860.38;5185802;28;20127;-43
2022/09/08 00:52:42;;;;;;;17.05;5.35;;;;;;;18.24;65.99;100863.47;5192612;28;20048;-42
2022/09/08 00:55:15;;;;;;;16.85;5.38;;;;;;;18.24;65.87;100868.81;5187939;28;20457;-42
2022/09/08 00:57:50;;;;;;;8.85;3.95;;;;;;;18.16;65.64;100846.59;5193079;28;20127;-44
2022/09/08 01:00:22;;;;;;;13.93;3.53;;;;;;;18.29;65.59;100866.38;5190900;28;20080;-50
2022/09/08 01:02:55;;;;;;;14.52;3.45;;;;;;;18.25;65.36;100860.59;5187841;28;20080;-41
2022/09/08 01:05:33;;;;;;;7.25;2.78;;;;;;;18.31;65.26;100859.00;5193405;28;20493;-43
2022/09/08 01:14:11;;;;;;;9.50;3.70;;;;;;;18.36;64.76;100835.94;5135807;28;20044;-43
2022/09/08 01:16:48;;;;;;;9.15;3.20;;;;;;;18.36;64.83;100840.47;5190519;28;20450;-43
2022/09/08 01:19:30;;;;;;;15.70;3.53;;;;;;;18.41;64.65;100846.88;5189511;28;20512;-44
2022/09/08 01:22:21;;;;;;;9.13;2.80;;;;;;;18.40;64.50;100836.41;5193069;28;20092;-46
2022/09/08 01:25:00;;;;;;;7.90;3.25;;;;;;;18.40;64.63;100829.19;5190664;28;20064;-45
2022/09/08 01:27:36;;;;;;;5.05;2.78;;;;;;;18.36;64.71;100824.44;5194328;28;20138;-47
2022/09/08 01:30:11;;;;;;;8.60;2.83;;;;;;;18.31;64.29;100818.88;5190184;28;20052;-42
2022/09/08 01:32:45;;;;;;;11.60;3.10;;;;;;;18.30;64.55;100826.09;5189453;28;20041;-40
2022/09/08 01:35:32;;;;;;;9.77;2.88;;;;;;;18.29;64.49;100829.75;5186463;28;20072;-48
2022/09/08 01:38:05;;;;;;;9.20;2.67;;;;;;;18.28;64.46;100825.44;5195671;28;20402;-41
2022/09/08 01:40:38;;;;;;;7.75;2.47;;;;;;;18.28;64.38;100822.78;5195809;28;20037;-46
2022/09/08 01:43:12;;;;;;;4.95;3.03;;;;;;;18.26;64.31;100819.47;5194747;28;20339;-44
2022/09/08 01:45:45;;;;;;;13.25;3.53;;;;;;;18.19;64.06;100814.09;5180117;28;20103;-41
2022/09/08 01:48:17;;;;;;;7.78;2.85;;;;;;;18.26;64.25;100824.81;5194880;28;20147;-42
2022/09/08 01:51:00;;;;;;;10.38;3.67;;;;;;;18.34;64.10;100824.66;5193557;28;20121;-43
2022/09/08 01:53:32;;;;;;;10.95;4.15;;;;;;;18.35;63.86;100820.94;5183286;28;20469;-45
2022/09/08 01:56:07;;;;;;;13.07;3.17;;;;;;;18.29;64.07;100819.06;5199477;28;20558;-41
2022/09/08 01:58:41;;;;;;;3.72;2.38;;;;;;;18.36;64.02;100830.59;5198841;28;20335;-46
2022/09/08 02:01:13;;;;;;;8.85;2.60;;;;;;;18.33;64.11;100825.66;5191323;28;20403;-45
2022/09/08 02:03:46;;;;;;;8.13;2.83;;;;;;;18.39;63.82;100824.84;5192843;28;20052;-43
2022/09/08 02:06:18;;;;;;;6.43;1.90;;;;;;;18.38;63.79;100820.53;5195686;28;20082;-41
2022/09/08 02:08:51;;;;;;;6.00;2.00;;;;;;;18.43;63.90;100830.63;5202296;28;20080;-41
2022/09/08 02:11:24;;;;;;;6.75;2.67;;;;;;;18.42;63.70;100829.78;5200190;28;20134;-41
2022/09/08 02:13:58;;;;;;;9.10;2.55;;;;;;;18.40;63.65;100836.41;5199854;28;20477;-41
2022/09/08 02:16:30;;;;;;;7.05;2.78;;;;;;;18.43;63.64;100836.81;5200485;28;20040;-44
2022/09/08 02:19:03;;;;;;;9.85;3.67;;;;;;;18.47;63.69;100831.06;5197959;28;20045;-46
2022/09/08 02:21:35;;;;;;;16.40;5.55;;;;;;;18.44;63.37;100832.28;5205384;28;20880;-42
2022/09/08 02:24:08;;;;;;;12.75;6.05;;;;;;;18.49;63.66;100845.03;5201201;28;20178;-41
2022/09/08 02:26:41;;;;;;;10.32;5.28;;;;;;;18.52;63.38;100839.28;5194524;28;20167;-46
2022/09/08 02:29:15;;;;;;;12.68;7.07;;;;;;;18.54;63.37;100842.59;5198261;28;20051;-42
2022/09/08 02:31:48;;;;;;;19.75;7.57;;;;;;;18.60;63.19;100842.59;5200174;28;20052;-40
2022/09/08 02:34:20;;;;;;;17.25;7.43;;;;;;;18.62;63.14;100834.38;5202397;28;20566;-43
2022/09/08 02:36:53;;;;;;;11.52;4.82;;;;;;;18.69;63.10;100831.72;5200728;28;20114;-43
2022/09/08 02:39:25;;;;;;;17.65;6.63;;;;;;;18.57;62.91;100815.44;5209451;28;20501;-48
2022/09/08 02:41:58;;;;;;;14.88;6.45;;;;;;;18.62;62.79;100819.16;5200953;28;20497;-42
2022/09/08 02:44:32;;;;;;;17.63;6.95;;;;;;;18.64;62.58;100821.63;5197722;28;20129;-43
2022/09/08 02:47:05;;;;;;;14.13;6.35;;;;;;;18.53;62.77;100798.16;5198948;28;20082;-42
2022/09/08 02:49:37;;;;;;;12.75;4.53;;;;;;;18.64;62.98;100813.59;5197961;28;20044;-43
2022/09/08 02:52:11;;;;;;;14.27;5.03;;;;;;;18.66;62.89;100811.53;5205489;28;20048;-40
2022/09/08 02:54:44;;;;;;;19.25;6.30;;;;;;;18.69;62.82;100811.13;5203711;28;20278;-37
2022/09/08 02:57:16;;;;;;;16.50;7.53;;;;;;;18.61;62.66;100796.13;5201795;28;20086;-42
2022/09/08 02:59:50;;;;;;;20.52;5.95;;;;;;;18.70;62.88;100804.75;5203270;28;20067;-43
2022/09/08 03:02:22;;;;;;;15.45;5.05;;;;;;;18.69;62.84;100807.66;5211692;28;20388;-47
2022/09/08 03:04:56;;;;;;;33.42;6.68;;;;;;;18.67;62.96;100807.84;5203915;28;20131;-45
2022/09/08 03:07:28;;;;;;;16.58;6.68;;;;;;;18.63;62.87;100804.75;5203497;28;20365;-44
2022/09/08 03:10:02;;;;;;;19.25;7.78;;;;;;;18.67;62.92;100814.03;5203819;28;20048;-40
2022/09/08 03:12:35;;;;;;;18.65;6.13;;;;;;;18.68;62.95;100817.53;5206724;28;20056;-47
2022/09/08 03:15:10;;;;;;;;;;;;;;;18.68;62.88;100817.53;5204296;28;20044;-41
2022/09/08 03:17:42;;;;;;;18.45;6.35;;;;;;;18.65;63.12;100808.06;5199678;28;20378;-38
2022/09/08 03:20:15;;;;;;;18.50;7.45;;;;;;;18.59;62.96;100789.31;5198029;28;20542;-41
2022/09/08 03:22:47;;;;;;;16.25;7.20;;;;;;;18.69;62.94;100811.13;5204707;28;20459;-44
2022/09/08 03:25:20;;;;;;;19.15;6.25;;;;;;;18.65;62.82;100808.06;5203161;28;20056;-44
2022/09/08 03:27:53;;;;;;;18.95;7.30;;;;;;;18.63;62.92;100795.91;5199469;28;20453;-40
2022/09/08 03:30:27;;;;;;;19.15;7.18;;;;;;;18.67;62.64;100805.16;5204673;28;20056;-47
2022/09/08 03:33:00;;;;;;;16.38;6.35;;;;;;;18.66;63.06;100804.34;5203300;28;20164;-42
2022/09/08 03:35:32;;;;;;;;;;;;;;;18.69;63.00;100796.94;5203994;28;20500;-43
2022/09/08 03:38:06;;;;;;;16.52;6.60;;;;;;;18.54;62.99;100778.41;5203616;28;20288;-43
2022/09/08 03:40:41;;;;;;;15.15;6.53;;;;;;;18.67;62.98;100791.78;5202281;28;20213;-44
2022/09/08 03:43:14;;;;;;;20.35;6.88;;;;;;;18.68;62.96;100796.13;5201445;28;20577;-41
2022/09/08 03:45:48;;;;;;;17.30;7.13;;;;;;;18.59;62.96;100773.28;5192782;28;20128;-42
2022/09/08 03:48:20;;;;;;;12.05;6.32;;;;;;;18.65;63.02;100769.78;5209133;28;20053;-45
2022/09/08 03:50:53;;;;;;;17.50;5.88;;;;;;;18.66;62.77;100766.06;5206102;28;20440;-42
2022/09/08 03:53:25;;;;;;;13.65;5.82;;;;;;;18.64;62.86;100773.47;5213861;28;20178;-43
2022/09/08 03:55:58;;;;;;;18.95;7.22;;;;;;;18.61;63.02;100773.88;5204317;28;20072;-42
2022/09/08 03:58:30;;;;;;;28.77;6.82;;;;;;;18.54;63.03;100759.69;5201471;28;20095;-41
2022/09/08 04:01:09;;;;;;;14.40;6.55;;;;;;;18.61;63.15;100774.72;5201936;28;20435;-42
2022/09/08 04:03:42;;;;;;;14.30;6.25;;;;;;;18.60;63.28;100766.88;5200065;28;20053;-44
2022/09/08 04:06:16;;;;;;;19.25;6.85;;;;;;;18.55;63.44;100769.34;5199044;28;20182;-41
2022/09/08 04:08:49;;;;;;;22.25;7.22;;;;;;;18.53;63.21;100766.88;5194167;28;20406;-44
2022/09/08 04:11:21;;;;;;;15.65;6.05;;;;;;;18.52;63.46;100770.59;5198313;28;20393;-45
2022/09/08 04:13:54;;;;;;;19.35;5.93;;;;;;;18.48;63.35;100776.53;5200315;28;20155;-33
2022/09/08 04:16:28;;;;;;;13.32;6.45;;;;;;;18.46;63.40;100771.41;5194588;28;20040;-43
2022/09/08 04:19:00;;;;;;;17.88;6.55;;;;;;;18.44;63.64;100768.91;5202015;28;20127;-41
2022/09/08 04:21:33;;;;;;;12.10;5.07;;;;;;;18.44;63.39;100773.44;5202937;28;20060;-43
2022/09/08 04:24:06;;;;;;;13.45;5.85;;;;;;;18.42;63.48;100770.97;5199886;28;20443;-42
2022/09/08 04:26:38;;;;;;;13.32;5.43;;;;;;;18.41;63.54;100768.50;5201122;28;20475;-41
2022/09/08 04:29:11;;;;;;;15.68;5.95;;;;;;;18.41;63.36;100769.31;5201436;28;20087;-45
2022/09/08 04:31:46;;;;;;;20.02;5.20;;;;;;;18.44;63.34;100776.94;5199499;28;20052;-40
2022/09/08 04:34:18;;;;;;;16.10;6.32;;;;;;;18.37;63.26;100762.75;5195880;28;20048;-41
2022/09/08 04:36:51;;;;;;;23.20;5.07;;;;;;;18.38;63.16;100753.69;5201873;28;20049;-44
2022/09/08 04:39:23;;;;;;;16.95;5.93;;;;;;;18.39;63.25;100758.00;5198238;28;20145;-46
2022/09/08 04:41:55;;;;;;;15.65;6.50;;;;;;;18.48;63.25;100766.66;5197319;28;20443;-43
2022/09/08 04:44:28;;;;;;;26.05;8.20;;;;;;;18.46;63.15;100762.53;5202031;28;20078;-42
2022/09/08 04:47:02;;;;;;;18.38;7.32;;;;;;;18.43;63.60;100766.47;5206195;28;20479;-41
2022/09/08 04:49:35;;;;;;;26.65;7.03;;;;;;;18.35;63.60;100754.09;5201425;28;20048;-44
2022/09/08 04:52:07;;;;;;;19.48;10.00;;;;;;;18.39;63.75;100763.34;5201523;28;20497;-43
2022/09/08 04:54:41;;;;;;;22.02;8.90;;;;;;;18.29;63.81;100748.75;5201114;28;20068;-43
2022/09/08 04:57:15;;;;;;;19.10;9.35;;;;;;;18.35;63.95;100759.44;5202897;28;20071;-43
2022/09/08 04:59:47;;;;;;;22.85;10.15;;;;;;;18.26;63.96;100744.63;5206909;28;20052;-40
2022/09/08 05:02:21;;;;;;;19.15;10.02;;;;;;;18.27;63.92;100756.13;5219047;28;20045;-41
2022/09/08 05:04:54;;;;;;;24.20;9.23;;;;;;;18.29;63.96;100754.91;5195347;28;20387;-41
2022/09/08 05:07:26;;;;;;;20.48;10.68;;;;;;;18.25;63.90;100747.50;5205462;28;20068;-39
2022/09/08 05:10:00;;;;;;;25.02;10.35;;;;;;;18.27;63.94;100748.97;5202468;28;20141;-43
2022/09/08 05:12:32;;;;;;;22.48;11.07;;;;;;;18.23;63.84;100745.03;5209975;28;20456;-41
2022/09/08 05:15:06;;;;;;;25.40;11.65;;;;;;;18.19;64.20;100749.13;5205902;28;22373;-39
2022/09/08 05:17:40;;;;;;;28.95;12.90;;;;;;;18.10;64.27;100747.66;5206457;28;20064;-42
2022/09/08 05:20:13;;;;;;;30.85;13.90;;;;;;;18.12;64.65;100749.13;5201718;28;20084;-43
2022/09/08 05:22:45;;;;;;;37.28;11.73;;;;;;;18.10;64.29;100758.34;5196325;28;20476;-41
2022/09/08 05:25:18;;;;;;;26.67;13.55;;;;;;;18.06;64.60;100763.28;5195999;28;20072;-42
2022/09/08 05:27:51;;;;;;;22.70;9.48;;;;;;;18.03;64.62;100762.88;5201416;28;20450;-41
2022/09/08 05:30:23;;;;;;;28.27;12.32;;;;;;;18.00;64.51;100760.59;5198683;28;20040;-40
2022/09/08 05:32:57;;;;;;;25.88;12.55;;;;;;;18.00;64.55;100757.94;5204308;28;20051;-43
2022/09/08 05:35:30;;;;;;;19.98;11.35;;;;;;;17.95;64.65;100753.97;5186939;28;20102;-39
2022/09/08 05:38:02;;;;;;;26.05;13.65;;;;;;;18.01;64.70;100754.22;5194528;28;21476;-45
2022/09/08 05:40:36;;;;;;;28.05;13.02;;;;;;;17.91;64.64;100742.06;5195921;28;20565;-39
2022/09/08 05:43:09;;;;;;;18.83;12.20;;;;;;;17.92;64.64;100754.38;5207065;28;20135;-40
2022/09/08 05:45:45;;;;;;;32.75;13.93;;;;;;;17.97;64.70;100756.47;5202378;28;20443;-42
2022/09/08 05:48:19;;;;;;;23.40;9.57;;;;;;;17.89;64.85;100757.47;5190512;28;20097;-42
2022/09/08 05:50:51;;;;;;;26.65;10.80;;;;;;;17.86;64.62;100760.53;5202077;28;20564;-42
2022/09/08 05:53:24;;;;;;;24.48;11.38;;;;;;;17.87;65.02;100761.34;5202056;28;20048;-44
2022/09/08 05:55:59;;;;;;;29.35;10.52;;;;;;;17.89;64.91;100770.81;5204220;28;20436;-42
2022/09/08 05:58:31;;;;;;;21.63;10.70;;;;;;;17.85;65.11;100761.56;5207050;28;20414;-39
2022/09/08 06:01:07;;;;;;;27.65;10.13;;;;;;;17.86;65.11;100771.22;5201236;28;20143;-40
2022/09/08 06:03:41;;;;;;;25.40;8.93;;;;;;;17.84;65.26;100767.94;5201047;28;20052;-40
2022/09/08 06:06:16;;;;;;;23.33;9.23;;;;;;;17.81;65.45;100768.34;5203204;28;20675;-43
2022/09/08 06:08:49;;;;;;;26.02;10.82;;;;;;;17.85;65.10;100779.44;5194624;28;20138;-41
2022/09/08 06:11:21;;;;;;;25.35;11.00;;;;;;;17.79;65.08;100773.03;5201628;28;20342;-45
2022/09/08 06:13:54;;;;;;;28.65;10.43;;;;;;;17.81;65.22;100772.81;5201582;28;20049;-40
2022/09/08 06:16:32;;;;;;;27.17;10.80;;;;;;;17.84;65.21;100778.63;5189812;28;20097;-41
2022/09/08 06:19:06;;;;;;;20.08;10.65;;;;;;;17.86;65.13;100771.22;5195845;28;20048;-42
2022/09/08 06:21:39;;;;;;;26.75;14.23;;;;;;;17.92;65.03;100778.44;5205067;28;20476;-41
2022/09/08 06:24:14;;;;;;;22.23;11.38;;;;;;;17.95;65.14;100774.53;5203674;28;20052;-42
2022/09/08 06:27:02;;;;;;;28.75;13.00;;;;;;;17.93;64.98;100766.75;5198798;28;20078;-44
2022/09/08 06:29:59;;;;;;;30.77;14.25;;;;;;;17.95;64.84;100772.69;5207753;28;20060;-40
2022/09/08 06:32:36;;;;;;;27.98;12.48;;;;;;;17.95;65.09;100772.69;5206632;28;20417;-43
2022/09/08 06:35:17;;;;;;;27.88;12.98;;;;;;;17.95;65.03;100772.69;5204353;28;20427;-40
2022/09/08 06:37:53;;;;;;;35.13;17.88;;;;;;;17.93;65.12;100766.75;5204687;28;20547;-47
2022/09/08 06:40:30;;;;;;;27.38;12.18;;;;;;;17.98;65.24;100782.16;5204480;28;20436;-46
2022/09/08 06:43:08;;;;;;;24.95;11.80;;;;;;;17.97;65.27;100777.84;5208892;28;20469;-42
2022/09/08 06:45:46;;;;;;;23.38;12.05;;;;;;;17.97;65.14;100773.31;5208172;28;20134;-41
2022/09/08 06:48:28;;;;;;;16.25;8.82;;;;;;;17.96;65.25;100777.03;5190308;28;20069;-45
2022/09/08 06:51:23;;;;;;;18.98;9.27;;;;;;;17.95;65.26;100778.03;5200971;28;20076;-40
2022/09/08 06:54:13;;;;;;;17.10;9.25;;;;;;;17.95;65.35;100772.69;5202567;28;20405;-43
2022/09/08 06:56:58;;;;;;;23.58;10.32;;;;;;;17.92;65.31;100775.75;5210226;28;20052;-41
2022/09/08 06:59:48;;;;;;;17.73;8.60;;;;;;;17.97;65.42;100799.22;5192249;28;20131;-44
2022/09/08 07:02:59;;;;;;;16.08;7.30;;;;;;;17.92;65.52;100785.63;5194153;28;20127;-39
2022/09/08 07:06:10;;;;;;;14.57;7.20;;;;;;;17.74;65.81;100783.44;5197838;28;20497;-45
2022/09/08 07:09:08;;;;;;;11.98;6.63;;;;;;;17.75;65.78;100785.13;5211814;28;20216;-41
2022/09/08 07:11:53;;;;;;;11.57;5.40;;;;;;;17.70;65.60;100776.88;5196305;28;20063;-38
2022/09/08 07:14:55;;;;;;;12.02;4.72;;;;;;;17.63;65.72;100773.34;5194174;28;20139;-41
2022/09/08 07:17:34;;;;;;;3.90;2.50;;;;;;;17.66;65.51;100781.78;5199919;28;20076;-46
2022/09/08 07:20:11;;;;;;;7.75;3.60;;;;;;;17.61;65.56;100780.72;5194605;28;20798;-44
2022/09/08 07:22:49;;;;;;;12.02;5.13;;;;;;;17.62;65.64;100785.03;5189998;28;20151;-41
2022/09/08 07:25:27;;;;;;;12.85;5.15;;;;;;;17.62;65.55;100779.69;5185690;28;20175;-40
2022/09/08 07:28:05;;;;;;;12.88;6.72;;;;;;;17.67;65.41;100778.09;5182870;28;20408;-43
2022/09/08 07:30:39;;;;;;;9.75;4.88;;;;;;;17.72;65.35;100786.34;5195140;28;20040;-43
2022/09/08 07:33:22;;;;;;;6.13;2.58;;;;;;;17.67;65.19;100761.25;5201585;28;20516;-47
2022/09/08 07:39:51;;;;;;;10.02;3.38;;;;;;;17.75;65.08;100775.25;5195784;28;20110;-40
2022/09/08 07:42:23;;;;;;;5.50;2.73;;;;;;;17.71;65.19;100775.84;5201465;28;20071;-42
2022/09/08 07:45:01;;;;;;;5.10;3.08;;;;;;;17.85;65.13;100780.25;5205519;28;20298;-47
2022/09/08 07:47:57;;;;;;;6.75;3.20;;;;;;;17.92;64.93;100786.44;5194325;28;20417;-45
2022/09/08 07:53:46;;;;;;;12.05;3.80;;;;;;;18.01;64.87;100783.63;5197621;28;20185;-43
2022/09/08 07:56:27;;;;;;;9.07;3.60;;;;;;;17.95;64.78;100775.38;5177019;28;21997;-43
2022/09/08 07:59:14;;;;;;;7.95;4.20;;;;;;;18.00;64.56;100777.44;5195974;28;20094;-41
2022/09/08 08:02:10;;;;;;;10.75;4.28;;;;;;;18.11;64.38;100778.72;5195264;28;20370;-46
2022/09/08 08:04:58;;;;;;;6.10;4.28;;;;;;;18.23;64.53;100789.66;5196469;28;20508;-39
2022/09/08 08:07:39;;;;;;;7.07;4.45;;;;;;;18.30;64.43;100794.00;5200214;28;20041;-39
2022/09/08 08:10:21;;;;;;;9.95;3.33;;;;;;;18.32;64.32;100791.94;5188530;28;20191;-44
2022/09/08 08:13:04;;;;;;;7.22;3.78;;;;;;;18.38;64.10;100799.16;5190550;28;20489;-42
2022/09/08 08:15:44;;;;;;;12.88;4.35;;;;;;;18.38;64.19;100807.16;5191672;28;20041;-42
2022/09/08 08:18:26;;;;;;;7.95;5.03;;;;;;;18.34;64.10;100800.59;5193304;28;20503;-45
2022/09/08 08:21:06;;;;;;;9.43;5.43;;;;;;;18.38;63.94;100807.16;5201720;28;20494;-39
2022/09/08 08:24:07;;;;;;;12.80;5.75;;;;;;;18.46;64.12;100808.00;5205597;28;20491;-39
2022/09/08 08:26:49;;;;;;;9.55;6.18;;;;;;;18.45;63.85;100804.50;5203001;28;20040;-42
2022/09/08 08:29:54;;;;;;;11.23;6.60;;;;;;;18.48;63.86;100811.31;5199818;28;20102;-43
2022/09/08 08:32:30;;;;;;;13.13;6.25;;;;;;;18.48;63.91;100816.66;5169220;28;20048;-40
2022/09/08 08:35:13;;;;;;;14.27;6.70;;;;;;;18.48;63.80;100817.47;5189722;28;20477;-46
2022/09/08 08:37:49;;;;;;;15.43;7.60;;;;;;;18.49;63.59;100819.13;5199520;28;20435;-44
2022/09/08 08:40:50;;;;;;;13.80;8.20;;;;;;;18.58;63.62;100817.06;5203441;28;20040;-43
2022/09/08 08:44:08;;;;;;;12.27;7.07;;;;;;;18.69;63.34;100810.31;5209843;28;20423;-46
2022/09/08 08:47:07;;;;;;;13.25;7.97;;;;;;;18.92;63.17;100817.97;5211979;28;20469;-40
2022/09/08 08:50:25;;;;;;;17.33;9.18;;;;;;;19.04;62.75;100817.16;5198112;28;20052;-43
2022/09/08 08:53:31;;;;;;;16.80;8.77;;;;;;;19.15;62.61;100814.91;5196017;28;20056;-42
2022/09/08 08:56:14;;;;;;;15.88;9.10;;;;;;;19.19;62.49;100822.31;5176994;28;20408;-40
2022/09/08 08:59:18;;;;;;;12.68;8.05;;;;;;;19.28;62.40;100821.06;5197337;28;20052;-44
2022/09/08 09:02:14;;;;;;;12.20;9.07;;;;;;;19.30;62.15;100805.63;5171717;28;20110;-43
2022/09/08 09:05:25;;;;;;;16.83;9.15;;;;;;;19.52;62.06;100816.09;5200855;28;20445;-42
2022/09/08 09:08:44;;;;;;;12.85;9.13;;;;;;;19.83;61.37;100814.59;5183647;28;20077;-42
2022/09/08 09:11:36;;;;;;;16.60;9.77;;;;;;;20.11;60.44;100811.59;5182970;28;20041;-43
2022/09/08 09:14:42;;;;;;;17.70;9.50;;;;;;;20.45;60.40;100816.56;5202824;28;20507;-39
2022/09/08 09:17:51;;;;;;;14.25;10.77;;;;;;;20.65;60.14;100813.78;5203902;28;20047;-44
2022/09/08 09:20:41;;;;;;;13.18;9.55;;;;;;;20.90;59.75;100810.31;5190099;28;20040;-43
2022/09/08 09:23:23;;;;;;;13.80;9.68;;;;;;;21.23;59.44;100803.84;5202064;28;20082;-46
2022/09/08 09:26:01;;;;;;;14.03;9.57;;;;;;;21.32;59.31;100797.16;5196342;28;20492;-40
2022/09/08 09:28:58;;;;;;;12.75;8.82;;;;;;;21.41;59.39;100795.84;5205252;28;20056;-42
2022/09/08 09:32:05;;;;;;;16.85;9.00;;;;;;;22.05;58.53;100799.88;5173747;28;20586;-43
2022/09/08 09:35:22;;;;;;;11.50;8.45;;;;;;;22.65;57.84;100792.84;5201446;28;20040;-44
2022/09/08 09:38:30;;;;;;;10.93;7.60;;;;;;;22.94;57.20;100800.06;5203952;28;20404;-45
2022/09/08 09:41:44;;;;;;;14.07;7.75;;;;;;;22.68;56.58;100776.25;5204754;28;20075;-44
2022/09/08 09:44:35;;;;;;;;;;;;;;;22.51;57.03;100779.56;5173826;28;20095;-43
2022/09/08 09:47:38;;;;;;;12.65;6.95;;;;;;;22.47;56.60;100778.41;5179468;28;19921;-44
2022/09/08 09:50:50;;;;;;;10.45;7.95;;;;;;;22.37;56.78;100783.53;5165868;28;20439;-46
2022/09/08 09:53:50;;;;;;;12.10;8.02;;;;;;;22.38;56.85;100773.59;5208478;28;20062;-42
2022/09/08 09:57:06;;;;;;;8.82;7.07;;;;;;;22.28;56.46;100779.53;5203547;28;20438;-40
2022/09/08 10:00:14;;;;;;;20.50;8.32;;;;;;;22.34;56.61;100786.69;5164270;28;20064;-45
2022/09/08 10:03:54;;;;;;;11.25;9.02;;;;;;;22.82;55.96;100790.28;5201619;28;20062;-43
2022/09/08 10:06:53;;;;;;;18.33;11.02;;;;;;;22.85;56.27;100793.34;5073989;28;20077;-43
2022/09/08 10:10:19;;;;;;;13.20;10.65;;;;;;;22.96;55.99;100792.56;5090781;28;20389;-42
2022/09/08 10:13:45;;;;;;;12.38;9.48;;;;;;;23.23;55.43;100786.75;5180127;28;20107;-44
2022/09/08 10:16:59;;;;;;;15.57;10.95;;;;;;;23.02;55.96;100797.03;5177283;28;20052;-43
2022/09/08 10:20:18;;;;;;;15.65;11.00;;;;;;;22.61;56.62;100800.56;5169958;28;20048;-44
2022/09/08 10:23:44;;;;;;;10.55;9.40;;;;;;;22.25;57.10;100796.13;5173183;28;20049;-43
2022/09/08 10:26:53;;;;;;;12.38;8.00;;;;;;;22.10;57.23;100805.38;5182045;28;20131;-45
2022/09/08 10:30:23;;;;;;;8.23;6.93;;;;;;;22.03;57.14;100799.28;5189135;28;20053;-44
2022/09/08 10:33:28;;;;;;;11.82;8.13;;;;;;;22.04;57.07;100790.13;5121166;28;20395;-48
2022/09/08 10:36:07;;;;;;;13.95;8.15;;;;;;;22.27;56.37;100789.47;5182689;28;20049;-44
2022/09/08 10:39:00;;;;;;;10.55;6.80;;;;;;;22.48;56.09;100790.84;5201619;28;20044;-42
2022/09/08 10:42:22;;;;;;;7.20;5.32;;;;;;;22.61;55.60;100791.66;5200893;28;20040;-43
2022/09/08 10:45:46;;;;;;;9.35;6.22;;;;;;;22.62;55.71;100793.31;5194775;28;20550;-46
2022/09/08 10:49:00;;;;;;;10.60;5.35;;;;;;;22.37;55.83;100788.91;5183435;28;20538;-45
2022/09/08 10:52:08;;;;;;;10.18;4.60;;;;;;;22.20;56.35;100795.97;5151881;28;20041;-50
2022/09/08 10:55:27;;;;;;;9.57;5.05;;;;;;;22.05;56.32;100786.44;5194927;28;20059;-41
2022/09/08 10:58:31;;;;;;;8.40;4.53;;;;;;;22.09;56.19;100776.84;5151475;28;20049;-44
2022/09/08 11:01:23;;;;;;;20.98;4.70;;;;;;;22.30;55.94;100780.94;5189836;28;20486;-42
2022/09/08 11:04:52;;;;;;;10.18;4.35;;;;;;;22.86;55.12;100784.22;5190448;28;20488;-45
2022/09/08 11:07:55;;;;;;;6.50;2.70;;;;;;;23.54;54.03;100779.34;5190076;28;20037;-44
2022/09/08 11:10:58;;;;;;;7.60;3.00;;;;;;;23.88;52.97;100773.06;5153667;28;20461;-44
2022/09/08 11:13:34;;;;;;;6.43;2.55;;;;;;;23.76;53.04;100780.38;5194739;28;20159;-46
2022/09/08 11:16:40;;;;;;;10.68;2.97;;;;;;;23.73;53.11;100791.63;5204680;28;20065;-45
2022/09/08 11:19:46;;;;;;;8.30;3.05;;;;;;;23.62;53.57;100792.44;5194194;28;20431;-45
2022/09/08 11:23:04;;;;;;;5.57;2.88;;;;;;;23.36;53.87;100791.88;5191018;28;20037;-44
2022/09/08 11:26:10;;;;;;;8.25;3.40;;;;;;;23.24;54.27;100782.97;5190657;28;20052;-43
2022/09/08 11:28:58;;;;;;;9.52;3.92;;;;;;;23.28;54.29;100773.38;5191713;28;20052;-44
2022/09/08 11:31:49;;;;;;;7.65;3.55;;;;;;;23.50;53.99;100772.75;5197942;28;20428;-43
2022/09/08 11:34:56;;;;;;;6.47;3.88;;;;;;;23.45;53.95;100771.59;5191517;28;20048;-51
2022/09/08 11:38:39;;;;;;;8.57;4.05;;;;;;;23.37;54.17;100777.34;5194829;28;20067;-46
2022/09/08 11:41:39;;;;;;;6.00;3.22;;;;;;;23.11;54.45;100767.88;5124073;28;20487;-45
2022/09/08 11:44:47;;;;;;;9.00;4.30;;;;;;;22.96;54.79;100779.09;5136951;28;20490;-47
2022/09/08 11:48:23;;;;;;;9.40;3.85;;;;;;;22.89;54.86;100783.75;5190530;28;20190;-50
2022/09/08 11:51:19;;;;;;;7.97;2.80;;;;;;;22.91;54.74;100797.81;5183887;28;20041;-43
2022/09/08 11:54:12;;;;;;;11.63;3.10;;;;;;;22.89;54.68;100793.72;5191563;28;20187;-46
2022/09/08 11:57:31;;;;;;;7.35;3.75;;;;;;;22.77;54.81;100782.94;5197433;28;20230;-44
2022/09/08 12:00:26;;;;;;;9.48;3.47;;;;;;;22.63;54.87;100779.59;5192626;28;20057;-47
2022/09/08 12:03:40;;;;;;;9.32;3.20;;;;;;;22.55;54.91;100775.41;5193137;28;20059;-39
2022/09/08 12:06:35;;;;;;;10.52;3.55;;;;;;;22.74;54.63;100768.06;5195889;28;20044;-44
2022/09/08 12:09:36;;;;;;;6.75;3.05;;;;;;;23.08;54.01;100772.91;5195411;28;20056;-43
2022/09/08 12:13:02;;;;;;;10.48;3.67;;;;;;;23.31;53.51;100767.50;5193667;28;20182;-41
2022/09/08 12:16:31;;;;;;;10.40;3.30;;;;;;;23.35;53.35;100763.31;5186612;28;20362;-42
2022/09/08 12:20:11;;;;;;;13.98;3.10;;;;;;;23.61;52.80;100766.53;5195446;27;20120;-41
2022/09/08 12:23:22;;;;;;;10.40;3.28;;;;;;;23.59;52.99;100760.56;5119678;28;20115;-45
2022/09/08 12:26:24;;;;;;;9.90;3.00;;;;;;;23.83;52.52;100764.03;5129574;28;20471;-41
2022/09/08 12:29:40;;;;;;;9.83;2.77;;;;;;;24.16;51.95;100756.06;5182591;28;20400;-39
2022/09/08 12:32:53;;;;;;;9.77;2.42;;;;;;;24.39;51.43;100755.09;5141946;28;21208;-46
2022/09/08 12:35:34;;;;;;;9.43;2.63;;;;;;;24.60;50.73;100758.19;5194609;28;20401;-44
2022/09/08 12:38:36;;;;;;;10.10;3.45;;;;;;;24.69;50.65;100754.03;5200645;28;20337;-47
2022/09/08 12:41:44;;;;;;;6.63;2.38;;;;;;;24.95;49.99;100751.72;5197509;28;20067;-48
2022/09/08 12:44:39;;;;;;;7.57;2.90;;;;;;;24.99;49.57;100744.75;5190270;28;20056;-43
2022/09/08 12:47:30;;;;;;;12.85;3.00;;;;;;;25.05;49.36;100751.84;5191058;28;20570;-43
2022/09/08 12:50:34;;;;;;;14.48;3.72;;;;;;;24.98;49.62;100752.03;5197059;28;20131;-43
2022/09/08 12:53:43;;;;;;;8.32;3.00;;;;;;;24.78;49.98;100759.84;5193343;28;20413;-44
2022/09/08 12:56:26;;;;;;;13.85;3.10;;;;;;;24.55;50.00;100748.09;5191658;28;20404;-41